Time;durP1;ratioP1;P1;durP2;ratioP2;P2;SDS_P1;SDS_P2;PMS_P1;PMS_P2;Temp;Humidity;BMP_temperature;BMP_pressure;BME280_temperature;BME280_humidity;BME280_pressure;Samples;Min_cycle;Max_cycle;Signal;HPM_P1;HPM_P2
2021/07/24 00:01:38;;;;;;;28.60;25.40;;;;;;;20.12;65.04;100440.64;128231;1098;22392;-77
2021/07/24 00:04:08;;;;;;;31.50;27.85;;;;;;;20.08;65.29;100446.70;128186;1098;24250;-76
2021/07/24 00:06:46;;;;;;;28.70;25.83;;;;;;;20.05;65.64;100447.15;128207;1098;24256;-76
2021/07/24 00:09:16;;;;;;;34.20;26.75;;;;;;;20.04;65.59;100443.66;128179;1097;22369;-77
2021/07/24 00:11:46;;;;;;;29.93;26.90;;;;;;;20.00;65.29;100438.98;128189;1098;22380;-77
2021/07/24 00:14:15;;;;;;;35.68;28.78;;;;;;;19.97;65.62;100448.30;128213;1098;22413;-76
2021/07/24 00:16:45;;;;;;;32.75;28.25;;;;;;;19.96;66.04;100441.30;128212;1097;23884;-76
2021/07/24 00:19:15;;;;;;;31.65;28.23;;;;;;;19.93;66.29;100445.25;128164;1098;22378;-77
2021/07/24 00:21:44;;;;;;;32.23;26.88;;;;;;;19.90;66.22;100445.70;128241;1097;24259;-76
2021/07/24 00:24:14;;;;;;;30.43;27.23;;;;;;;19.88;66.06;100442.42;128202;1097;24250;-76
2021/07/24 00:26:46;;;;;;;32.03;28.13;;;;;;;19.86;66.39;100441.00;128234;1098;24489;-76
2021/07/24 00:29:16;;;;;;;33.63;28.80;;;;;;;19.81;66.52;100439.02;128190;1096;24508;-77
2021/07/24 00:31:46;;;;;;;30.53;27.33;;;;;;;19.77;66.97;100437.02;128235;1098;22392;-76
2021/07/24 00:34:17;;;;;;;30.18;27.03;;;;;;;19.73;67.01;100437.47;128217;1098;22370;-76
2021/07/24 00:36:47;;;;;;;31.30;27.85;;;;;;;19.68;66.95;100428.46;128220;1098;22420;-77
2021/07/24 00:39:18;;;;;;;30.50;27.00;;;;;;;19.64;67.35;100436.14;128222;1098;22372;-77
2021/07/24 00:41:52;;;;;;;31.08;27.40;;;;;;;19.62;67.43;100432.82;128228;1098;24538;-77
2021/07/24 00:44:25;;;;;;;30.45;25.15;;;;;;;19.60;67.55;100423.39;128248;1098;22824;-77
2021/07/24 00:46:58;;;;;;;28.30;25.00;;;;;;;19.57;67.71;100430.02;128251;1098;22379;-76
2021/07/24 00:49:31;;;;;;;30.18;26.98;;;;;;;19.55;67.87;100429.41;128190;1098;24691;-77
2021/07/24 00:52:03;;;;;;;27.43;24.78;;;;;;;19.51;68.18;100434.40;128168;1096;22369;-75
2021/07/24 00:54:33;;;;;;;28.70;25.50;;;;;;;19.48;68.34;100434.03;128239;1098;24333;-76
2021/07/24 00:57:03;;;;;;;30.48;25.25;;;;;;;19.44;68.28;100432.85;128186;1098;22391;-75
2021/07/24 00:59:34;;;;;;;29.58;26.53;;;;;;;19.40;68.18;100431.67;128214;1098;22372;-76
2021/07/24 01:02:05;;;;;;;33.23;26.50;;;;;;;19.37;68.41;100435.61;128312;1098;22391;-76
2021/07/24 01:04:36;;;;;;;31.93;25.85;;;;;;;19.32;68.76;100430.09;128165;1098;22441;-76
2021/07/24 01:07:06;;;;;;;;;;;;;;;19.27;68.74;100428.09;128185;1098;25130;-76
2021/07/24 01:09:37;;;;;;;34.25;26.70;;;;;;;19.23;68.68;100429.58;128176;1098;22360;-77
2021/07/24 01:12:09;;;;;;;31.98;28.60;;;;;;;19.18;68.90;100431.28;128204;1098;22388;-77
2021/07/24 01:14:39;;;;;;;32.65;29.45;;;;;;;19.13;68.97;100429.28;128224;1098;22399;-77
2021/07/24 01:17:08;;;;;;;31.03;27.35;;;;;;;19.10;69.20;100426.23;128241;1098;22372;-76
2021/07/24 01:19:42;;;;;;;30.23;27.08;;;;;;;19.07;69.01;100426.67;128242;1098;22384;-76
2021/07/24 01:22:14;;;;;;;30.43;26.18;;;;;;;19.02;69.21;100429.99;128231;1098;22369;-76
2021/07/24 01:24:43;;;;;;;29.80;26.60;;;;;;;18.98;69.29;100426.95;128240;1098;22393;-76
2021/07/24 01:27:14;;;;;;;31.35;26.85;;;;;;;18.94;69.65;100428.43;128267;1098;22385;-76
2021/07/24 01:29:45;;;;;;;32.75;28.50;;;;;;;18.90;69.71;100415.72;128282;1098;22388;-76
2021/07/24 01:32:23;;;;;;;31.40;26.98;;;;;;;18.84;69.93;100416.59;128269;1098;22411;-76
2021/07/24 01:34:54;;;;;;;34.05;28.00;;;;;;;18.79;70.08;100418.08;128266;1096;22370;-76
2021/07/24 01:37:24;;;;;;;30.90;27.70;;;;;;;18.75;70.18;100411.52;128160;1096;22385;-76
2021/07/24 01:39:54;;;;;;;31.33;27.95;;;;;;;18.73;69.96;100412.80;128154;1097;23145;-77
2021/07/24 01:42:24;;;;;;;29.63;26.53;;;;;;;18.70;70.33;100416.69;128166;1096;22372;-76
2021/07/24 01:44:59;;;;;;;31.03;27.38;;;;;;;18.65;70.79;100421.86;128207;1098;22363;-74
2021/07/24 01:47:29;;;;;;;34.15;26.63;;;;;;;18.60;70.36;100416.36;128173;1098;22372;-75
2021/07/24 01:52:51;;;;;;;31.77;28.57;;;;;;;18.50;70.60;100410.69;128231;1098;25020;-75
2021/07/24 01:55:51;;;;;;;31.50;27.57;;;;;;;18.47;70.69;100416.47;128209;1098;22369;-75
2021/07/24 01:58:29;;;;;;;30.93;25.83;;;;;;;18.41;71.12;100420.02;128255;1096;22392;-76
2021/07/24 02:01:22;;;;;;;32.38;26.93;;;;;;;18.35;70.78;100411.81;128214;1098;22385;-76
2021/07/24 02:04:13;;;;;;;30.58;25.68;;;;;;;18.33;70.88;100415.77;128284;1096;24262;-77
2021/07/24 02:06:50;;;;;;;28.75;25.68;;;;;;;18.28;71.27;100413.72;128179;1098;22385;-76
2021/07/24 02:09:46;;;;;;;31.63;27.90;;;;;;;18.24;71.18;100406.36;128086;1098;25013;-76
2021/07/24 02:12:20;;;;;;;32.05;27.68;;;;;;;18.19;70.92;100406.98;128196;1098;22385;-76
2021/07/24 02:14:51;;;;;;;30.30;26.70;;;;;;;18.17;71.01;100405.59;128183;1097;22365;-76
2021/07/24 02:17:31;;;;;;;30.65;26.85;;;;;;;18.13;71.28;100399.86;128194;1098;22366;-76
2021/07/24 02:20:05;;;;;;;30.08;27.15;;;;;;;18.10;71.34;100408.30;128224;1098;22811;-76
2021/07/24 02:22:35;;;;;;;33.03;29.53;;;;;;;18.10;71.28;100410.98;128243;1098;22369;-76
2021/07/24 02:25:06;;;;;;;33.83;30.30;;;;;;;18.07;71.38;100408.73;128183;1098;22365;-77
2021/07/24 02:27:38;;;;;;;32.77;29.47;;;;;;;18.04;71.45;100412.66;128221;1096;22382;-75
2021/07/24 02:30:09;;;;;;;32.78;29.35;;;;;;;18.02;72.05;100405.88;128339;1097;22388;-76
2021/07/24 02:32:40;;;;;;;31.73;28.43;;;;;;;17.99;71.46;100406.30;128193;1098;22366;-76
2021/07/24 02:35:12;;;;;;;31.08;27.88;;;;;;;17.96;71.79;100406.73;128194;1098;24511;-77
2021/07/24 02:37:58;;;;;;;31.95;28.88;;;;;;;17.91;71.93;100411.91;128209;1098;22438;-76
2021/07/24 02:40:27;;;;;;;30.73;27.70;;;;;;;17.87;71.59;100404.33;128202;1098;22363;-76
2021/07/24 02:43:08;;;;;;;32.93;29.08;;;;;;;17.83;71.83;100391.62;128133;1098;22387;-76
2021/07/24 02:45:38;;;;;;;31.30;26.87;;;;;;;17.81;72.27;100396.34;128183;1098;22383;-77
2021/07/24 02:48:10;;;;;;;34.65;29.95;;;;;;;17.81;72.22;100410.52;128300;1098;23282;-76
2021/07/24 02:50:48;;;;;;;32.13;28.23;;;;;;;17.80;72.52;100408.89;128156;1098;22378;-76
2021/07/24 02:53:18;;;;;;;34.75;30.58;;;;;;;17.81;72.62;100407.84;128136;1098;22393;-77
2021/07/24 02:55:48;;;;;;;36.15;32.30;;;;;;;17.82;72.76;100398.79;127990;1098;22815;-76
2021/07/24 02:58:18;;;;;;;36.30;32.23;;;;;;;17.85;72.95;100408.23;128213;1098;22384;-77
2021/07/24 03:00:49;;;;;;;39.30;35.03;;;;;;;17.86;72.98;100402.70;128216;1096;22388;-77
2021/07/24 03:03:19;;;;;;;40.00;33.15;;;;;;;17.88;72.95;100405.95;128176;1098;22388;-76
2021/07/24 03:05:49;;;;;;;37.55;33.55;;;;;;;17.90;72.55;100400.41;128209;1098;22388;-76
2021/07/24 03:08:19;;;;;;;36.43;32.78;;;;;;;17.92;72.53;100400.18;128164;1098;22393;-77
2021/07/24 03:10:48;;;;;;;34.65;31.25;;;;;;;17.93;72.74;100402.66;128160;1098;24241;-77
2021/07/24 03:13:18;;;;;;;42.93;36.98;;;;;;;17.95;72.96;100407.77;128212;1098;22392;-77
2021/07/24 03:15:48;;;;;;;34.93;31.53;;;;;;;17.94;72.31;100401.61;128131;1098;22416;-77
2021/07/24 03:18:18;;;;;;;35.40;31.65;;;;;;;17.94;72.58;100406.14;128162;1098;22369;-76
2021/07/24 03:20:47;;;;;;;37.75;33.65;;;;;;;17.90;72.61;100411.10;128193;1098;22388;-76
2021/07/24 03:23:17;;;;;;;46.98;38.23;;;;;;;17.90;72.53;100413.77;128161;1098;22373;-77
2021/07/24 03:25:47;;;;;;;44.38;37.28;;;;;;;17.91;72.50;100412.73;128195;1098;22369;-77
2021/07/24 03:28:16;;;;;;;41.90;37.30;;;;;;;17.93;72.59;100404.52;128141;1098;22400;-78
2021/07/24 03:30:46;;;;;;;41.60;37.25;;;;;;;17.95;72.49;100402.42;128248;1097;24266;-77
2021/07/24 03:33:15;;;;;;;39.73;35.67;;;;;;;17.96;72.29;100404.06;128140;1098;24249;-76
2021/07/24 03:35:45;;;;;;;42.00;37.45;;;;;;;17.99;72.33;100408.98;128145;1098;22387;-76
2021/07/24 03:38:15;;;;;;;39.73;35.38;;;;;;;17.98;72.23;100405.48;128163;1098;22375;-76
2021/07/24 03:40:44;;;;;;;40.15;35.60;;;;;;;17.99;72.44;100400.95;128170;1098;22369;-76
2021/07/24 03:43:15;;;;;;;37.50;33.65;;;;;;;17.99;71.84;100409.79;128219;1096;24512;-76
2021/07/24 03:45:44;;;;;;;42.83;36.43;;;;;;;17.99;72.39;100406.30;128023;1098;22385;-76
2021/07/24 03:48:15;;;;;;;38.60;34.50;;;;;;;17.97;72.11;100414.55;128176;1097;22366;-76
2021/07/24 03:50:44;;;;;;;39.68;35.63;;;;;;;17.98;72.14;100413.50;128147;1097;22369;-76
2021/07/24 03:53:14;;;;;;;38.63;34.50;;;;;;;18.01;72.52;100410.41;128169;1098;22388;-77
2021/07/24 03:55:44;;;;;;;39.70;35.40;;;;;;;18.06;72.16;100421.29;127953;1098;22404;-76
2021/07/24 03:58:14;;;;;;;37.43;33.73;;;;;;;18.10;72.12;100421.67;128159;1098;22391;-77
2021/07/24 04:00:46;;;;;;;40.98;36.18;;;;;;;18.13;72.44;100421.24;128145;1098;24532;-77
2021/07/24 04:03:18;;;;;;;44.33;39.95;;;;;;;18.13;71.98;100426.59;128202;1098;22904;-77
2021/07/24 04:05:48;;;;;;;46.40;40.90;;;;;;;18.14;71.82;100422.88;128228;1098;22902;-77
2021/07/24 04:08:18;;;;;;;38.93;34.80;;;;;;;18.15;71.66;100427.17;128171;1098;22369;-76
2021/07/24 04:10:48;;;;;;;42.30;37.75;;;;;;;18.17;72.05;100422.45;128179;1098;22388;-77
2021/07/24 04:13:18;;;;;;;41.83;37.43;;;;;;;18.18;71.98;100426.75;128162;1098;22372;-77
2021/07/24 04:15:47;;;;;;;41.70;37.50;;;;;;;18.20;72.01;100426.55;128234;1097;22366;-77
2021/07/24 04:18:23;;;;;;;40.30;36.13;;;;;;;18.22;71.64;100427.95;128183;1096;22653;-76
2021/07/24 04:20:53;;;;;;;41.48;34.58;;;;;;;18.23;71.80;100426.94;128222;1098;22385;-76
2021/07/24 04:23:23;;;;;;;38.83;34.45;;;;;;;18.25;71.79;100422.17;128247;1098;22368;-75
2021/07/24 04:25:53;;;;;;;39.28;35.38;;;;;;;18.25;71.94;100429.38;128165;1097;24516;-75
2021/07/24 04:28:26;;;;;;;39.55;35.55;;;;;;;18.26;71.48;100428.33;128188;1098;25858;-77
2021/07/24 04:30:56;;;;;;;40.70;36.30;;;;;;;18.26;71.69;100426.50;128228;1098;22442;-76
2021/07/24 04:33:25;;;;;;;38.73;34.73;;;;;;;18.29;71.79;100425.23;128181;1098;22369;-78
2021/07/24 04:35:55;;;;;;;39.13;34.03;;;;;;;18.35;71.92;100422.50;128195;1098;22675;-77
2021/07/24 04:38:25;;;;;;;39.50;35.23;;;;;;;18.40;72.04;100424.55;128177;1098;22388;-77
2021/07/24 04:40:54;;;;;;;38.80;33.38;;;;;;;18.46;72.01;100428.19;128175;1098;25037;-77
2021/07/24 04:43:24;;;;;;;42.18;37.23;;;;;;;18.54;72.10;100427.94;128173;1098;22372;-78
2021/07/24 04:45:53;;;;;;;43.23;36.80;;;;;;;18.61;71.33;100417.99;128229;1098;22366;-77
2021/07/24 04:48:23;;;;;;;69.73;63.65;;;;;;;18.69;71.09;100415.03;128157;1098;22400;-76
2021/07/24 04:50:56;;;;;;;40.48;36.33;;;;;;;18.78;70.91;100419.10;128211;1096;22818;-77
2021/07/24 04:53:26;;;;;;;43.35;35.95;;;;;;;18.91;70.55;100420.84;128173;1098;24266;-75
2021/07/24 04:55:56;;;;;;;42.48;33.18;;;;;;;19.04;70.36;100417.22;128183;1096;22373;-75
2021/07/24 04:58:26;;;;;;;37.28;33.58;;;;;;;19.16;70.04;100420.80;128200;1098;22366;-75
2021/07/24 05:00:56;;;;;;;40.00;33.28;;;;;;;19.30;69.55;100420.66;128190;1098;22401;-75
2021/07/24 05:03:26;;;;;;;39.23;35.25;;;;;;;19.43;69.05;100418.64;128143;1097;22378;-76
2021/07/24 05:05:55;;;;;;;36.65;32.85;;;;;;;19.56;68.99;100424.86;128171;1098;22376;-75
2021/07/24 05:08:25;;;;;;;34.88;31.58;;;;;;;19.67;68.59;100422.29;127913;1098;22398;-76
2021/07/24 05:10:55;;;;;;;40.73;32.37;;;;;;;19.81;68.56;100422.93;128003;1098;22418;-75
2021/07/24 05:13:24;;;;;;;35.55;32.05;;;;;;;19.97;68.33;100422.30;127923;1098;22428;-75
2021/07/24 05:15:54;;;;;;;36.30;32.00;;;;;;;20.15;67.80;100421.41;127897;1098;22392;-75
2021/07/24 05:18:24;;;;;;;37.25;31.88;;;;;;;20.33;67.39;100425.91;127967;1098;22405;-76
2021/07/24 05:20:54;;;;;;;35.00;31.40;;;;;;;20.52;66.96;100429.33;127912;1098;22401;-78
2021/07/24 05:23:24;;;;;;;34.38;30.98;;;;;;;20.73;66.87;100424.47;127965;1098;24540;-75
2021/07/24 05:25:54;;;;;;;36.70;32.88;;;;;;;20.91;66.46;100416.28;127908;1098;24528;-75
2021/07/24 05:28:23;;;;;;;34.50;30.93;;;;;;;21.10;65.70;100415.11;128206;1098;22372;-74
2021/07/24 05:30:53;;;;;;;34.38;30.90;;;;;;;21.31;65.04;100415.53;128192;1098;22379;-75
2021/07/24 05:33:22;;;;;;;32.20;28.63;;;;;;;21.51;64.21;100417.86;128169;1098;22370;-75
2021/07/24 05:35:52;;;;;;;34.93;29.03;;;;;;;21.68;63.32;100418.73;128231;1098;22391;-75
2021/07/24 05:38:21;;;;;;;33.88;30.38;;;;;;;21.84;62.91;100419.84;128169;1098;22372;-75
2021/07/24 05:40:51;;;;;;;31.98;27.73;;;;;;;22.01;62.07;100418.00;128180;1098;22377;-74
2021/07/24 05:43:21;;;;;;;32.40;26.03;;;;;;;22.20;61.49;100415.14;128199;1098;24511;-74
2021/07/24 05:45:51;;;;;;;28.10;25.50;;;;;;;22.38;60.08;100409.52;128251;1098;22363;-74
2021/07/24 05:48:20;;;;;;;27.63;24.65;;;;;;;22.62;59.78;100412.84;128233;1097;22366;-76
2021/07/24 05:50:50;;;;;;;27.48;24.60;;;;;;;22.85;58.57;100413.73;128184;1098;24174;-77
2021/07/24 05:53:20;;;;;;;27.30;24.13;;;;;;;23.14;58.67;100415.25;128222;1098;24501;-76
2021/07/24 05:55:49;;;;;;;26.85;24.28;;;;;;;23.36;57.16;100412.58;128497;1096;22388;-76
2021/07/24 05:58:19;;;;;;;30.58;27.48;;;;;;;23.63;56.89;100414.52;128213;1098;22371;-77
2021/07/24 06:00:48;;;;;;;28.10;25.40;;;;;;;23.85;56.00;100417.19;128176;1096;22381;-77
2021/07/24 06:03:18;;;;;;;27.73;24.43;;;;;;;24.14;55.77;100415.86;128187;1098;22373;-78
2021/07/24 06:05:48;;;;;;;28.90;26.30;;;;;;;24.46;55.25;100414.25;128385;1098;22373;-77
2021/07/24 06:08:18;;;;;;;28.05;25.03;;;;;;;24.66;54.11;100414.43;128180;1098;22383;-76
2021/07/24 06:10:48;;;;;;;30.18;25.28;;;;;;;24.95;53.96;100412.16;128212;1097;22364;-76
2021/07/24 06:13:21;;;;;;;27.15;24.45;;;;;;;25.25;52.64;100413.42;128221;1097;22398;-76
2021/07/24 06:15:50;;;;;;;27.85;23.73;;;;;;;25.46;52.23;100415.16;128185;1098;22369;-77
2021/07/24 06:18:21;;;;;;;28.25;25.55;;;;;;;25.71;51.67;100417.11;128156;1098;22410;-78
2021/07/24 06:20:50;;;;;;;26.85;23.88;;;;;;;25.96;51.53;100421.00;128206;1097;24984;-78
2021/07/24 06:23:20;;;;;;;25.40;22.80;;;;;;;26.21;50.49;100414.78;128188;1098;22402;-78
2021/07/24 06:25:50;;;;;;;23.80;21.53;;;;;;;26.50;49.89;100415.09;128225;1098;22785;-76
2021/07/24 06:28:21;;;;;;;24.33;21.77;;;;;;;26.86;48.98;100409.63;128340;1095;22381;-75
2021/07/24 06:30:51;;;;;;;26.60;21.68;;;;;;;27.02;48.29;100404.95;128230;1098;22360;-76
2021/07/24 06:33:20;;;;;;;24.58;21.95;;;;;;;27.28;47.43;100401.09;128235;1098;24524;-76
2021/07/24 06:35:50;;;;;;;23.55;21.00;;;;;;;27.59;46.82;100411.80;128262;1098;22476;-77
2021/07/24 06:38:19;;;;;;;23.27;20.80;;;;;;;27.79;45.48;100416.33;128153;1095;22381;-77
2021/07/24 06:40:49;;;;;;;22.35;20.03;;;;;;;27.86;45.01;100419.57;128311;1098;22753;-77
2021/07/24 06:43:19;;;;;;;20.00;17.83;;;;;;;27.98;44.62;100425.44;128308;1095;22369;-77
2021/07/24 06:45:50;;;;;;;19.78;17.45;;;;;;;28.13;43.73;100424.54;128280;1098;22382;-77
2021/07/24 06:48:20;;;;;;;19.68;16.53;;;;;;;28.35;43.24;100427.60;128249;1095;22360;-76
2021/07/24 06:51:08;;;;;;;18.45;16.55;;;;;;;28.46;42.02;100425.66;128215;1095;22378;-77
2021/07/24 06:53:38;;;;;;;19.05;17.03;;;;;;;28.46;41.65;100430.26;128523;1097;22386;-76
2021/07/24 06:56:08;;;;;;;17.80;16.08;;;;;;;28.41;41.25;100424.88;128293;1095;22536;-77
2021/07/24 06:58:38;;;;;;;18.58;16.30;;;;;;;28.42;41.29;100432.73;128223;1098;22371;-76
2021/07/24 07:01:08;;;;;;;17.73;15.53;;;;;;;28.53;40.84;100428.86;128204;1098;22359;-78
2021/07/24 07:03:38;;;;;;;21.15;17.25;;;;;;;28.56;40.90;100425.57;128234;1098;22364;-77
2021/07/24 07:06:08;;;;;;;19.68;17.15;;;;;;;28.53;40.49;100422.61;128215;1098;24912;-77
2021/07/24 07:08:38;;;;;;;18.63;16.60;;;;;;;28.55;40.76;100432.08;128215;1098;24253;-76
2021/07/24 07:11:08;;;;;;;19.30;17.38;;;;;;;28.60;40.17;100431.24;128191;1096;22384;-77
2021/07/24 07:13:37;;;;;;;19.85;17.30;;;;;;;28.68;40.30;100427.08;128195;1098;23140;-77
2021/07/24 07:16:09;;;;;;;24.75;16.40;;;;;;;28.80;40.28;100430.23;128204;1097;22379;-77
2021/07/24 07:18:39;;;;;;;18.13;16.23;;;;;;;28.95;39.85;100427.34;128207;1096;24512;-76
2021/07/24 07:21:10;;;;;;;17.03;15.33;;;;;;;29.15;39.61;100433.69;128210;1098;24508;-76
2021/07/24 07:23:39;;;;;;;16.85;14.80;;;;;;;29.31;39.42;100435.13;128295;1098;24259;-76
2021/07/24 07:26:10;;;;;;;15.80;13.93;;;;;;;29.54;38.94;100436.20;128180;1098;22357;-76
2021/07/24 07:28:40;;;;;;;15.57;13.97;;;;;;;29.75;38.72;100437.56;128199;1097;22362;-79
2021/07/24 07:31:10;;;;;;;15.43;13.83;;;;;;;29.72;37.88;100431.89;128420;1098;22851;-76
2021/07/24 07:33:40;;;;;;;15.30;13.70;;;;;;;29.78;37.34;100433.45;128217;1096;22359;-77
2021/07/24 07:36:10;;;;;;;12.48;11.28;;;;;;;29.78;36.71;100430.73;128173;1096;22362;-76
2021/07/24 07:38:41;;;;;;;13.68;12.23;;;;;;;29.62;36.42;100430.13;128161;1098;23224;-77
2021/07/24 07:41:12;;;;;;;12.80;11.30;;;;;;;29.64;36.40;100427.13;128149;1097;22906;-76
2021/07/24 07:43:42;;;;;;;15.23;11.20;;;;;;;29.88;36.73;100425.13;128205;1096;22379;-76
2021/07/24 07:46:11;;;;;;;11.83;10.65;;;;;;;30.10;36.19;100427.26;128195;1098;23299;-76
2021/07/24 07:48:42;;;;;;;11.78;10.58;;;;;;;30.15;35.20;100432.61;128211;1096;22395;-76
2021/07/24 07:51:11;;;;;;;14.40;12.98;;;;;;;30.07;34.49;100435.22;128252;1096;22366;-76
2021/07/24 07:53:41;;;;;;;13.03;11.73;;;;;;;30.13;34.10;100432.12;128220;1098;22346;-76
2021/07/24 07:56:11;;;;;;;12.03;10.27;;;;;;;30.15;34.22;100439.98;128203;1098;23075;-77
2021/07/24 07:58:41;;;;;;;12.43;10.28;;;;;;;30.23;34.26;100436.63;128273;1098;22372;-78
2021/07/24 08:01:13;;;;;;;10.80;9.77;;;;;;;30.38;34.10;100444.54;128235;1096;22389;-77
2021/07/24 08:03:43;;;;;;;10.73;9.63;;;;;;;30.60;33.25;100443.09;128244;1096;22371;-76
2021/07/24 08:06:13;;;;;;;10.45;9.40;;;;;;;30.83;33.56;100441.36;128217;1097;22374;-76
2021/07/24 08:08:43;;;;;;;10.98;9.95;;;;;;;31.05;33.02;100448.84;128202;1096;22359;-76
2021/07/24 08:11:13;;;;;;;10.50;9.48;;;;;;;31.04;32.73;100444.50;128207;1098;24413;-77
2021/07/24 08:13:43;;;;;;;10.98;9.98;;;;;;;31.17;32.63;100443.70;128219;1098;22384;-76
2021/07/24 08:16:16;;;;;;;12.80;11.50;;;;;;;31.43;32.18;100443.22;128239;1096;22408;-76
2021/07/24 08:18:46;;;;;;;10.90;9.80;;;;;;;31.56;31.86;100437.73;128268;1098;22374;-76
2021/07/24 08:21:16;;;;;;;11.98;10.85;;;;;;;31.75;32.30;100434.83;128216;1095;22391;-77
2021/07/24 08:23:45;;;;;;;15.18;10.15;;;;;;;31.81;31.49;100435.53;128172;1097;22385;-75
2021/07/24 08:26:15;;;;;;;11.43;10.33;;;;;;;31.80;31.78;100431.20;128189;1097;22365;-76
2021/07/24 08:28:45;;;;;;;12.48;11.08;;;;;;;31.96;31.67;100429.77;128236;1098;22392;-77
2021/07/24 08:31:15;;;;;;;11.53;10.40;;;;;;;31.77;31.05;100429.88;128195;1095;22200;-76
2021/07/24 08:33:45;;;;;;;11.05;10.05;;;;;;;31.61;31.85;100431.34;128161;1095;22373;-76
2021/07/24 08:36:15;;;;;;;11.40;10.13;;;;;;;31.78;31.75;100427.95;128136;1095;22376;-77
2021/07/24 08:38:44;;;;;;;14.15;10.28;;;;;;;31.78;31.55;100428.76;128159;1095;22347;-77
2021/07/24 08:41:16;;;;;;;11.65;9.90;;;;;;;31.94;31.57;100428.45;128153;1098;22365;-77
2021/07/24 08:43:46;;;;;;;9.90;9.00;;;;;;;31.98;31.03;100429.44;128224;1095;22372;-76
2021/07/24 08:46:19;;;;;;;11.35;10.23;;;;;;;31.86;30.49;100421.78;128210;1096;22364;-77
2021/07/24 08:48:49;;;;;;;9.83;8.93;;;;;;;31.80;30.73;100423.81;128137;1095;22363;-76
2021/07/24 08:51:21;;;;;;;10.75;9.75;;;;;;;31.82;29.76;100427.05;128173;1098;23089;-76
2021/07/24 08:53:50;;;;;;;10.50;9.50;;;;;;;31.67;30.33;100411.00;128129;1095;22805;-76
2021/07/24 08:56:27;;;;;;;11.70;10.70;;;;;;;31.75;30.61;100412.98;128227;1098;22369;-77
2021/07/24 08:59:00;;;;;;;9.53;8.70;;;;;;;31.65;30.62;100414.02;128226;1095;25972;-76
2021/07/24 09:01:34;;;;;;;9.03;8.20;;;;;;;31.61;30.60;100409.49;128266;1096;22369;-76
2021/07/24 09:04:05;;;;;;;11.00;9.50;;;;;;;31.73;30.46;100415.23;128221;1095;22363;-77
2021/07/24 09:06:35;;;;;;;9.65;8.55;;;;;;;31.85;30.57;100401.82;128181;1095;22849;-76
2021/07/24 09:09:05;;;;;;;11.80;10.80;;;;;;;32.00;29.99;100411.63;128193;1098;22366;-77
2021/07/24 09:11:35;;;;;;;10.18;9.15;;;;;;;31.97;29.86;100408.71;128179;1097;22354;-76
2021/07/24 09:14:05;;;;;;;;;;;;;;;31.84;29.87;100402.14;128251;1096;22384;-75
2021/07/24 09:16:37;;;;;;;10.10;9.03;;;;;;;31.77;30.55;100394.38;128212;1095;21491;-76
2021/07/24 09:19:08;;;;;;;10.53;8.55;;;;;;;32.01;30.09;100398.77;128232;1098;22370;-76
2021/07/24 09:21:38;;;;;;;9.70;8.83;;;;;;;32.10;29.49;100394.98;128210;1095;24266;-77
2021/07/24 09:24:19;;;;;;;;;;;;;;;31.95;29.67;100387.14;128263;1095;22373;-77
2021/07/24 09:26:49;;;;;;;9.08;8.30;;;;;;;31.85;30.16;100379.97;128302;1098;21289;-76
2021/07/24 09:29:21;;;;;;;9.00;8.20;;;;;;;31.80;29.54;100382.84;128248;1095;22378;-76
2021/07/24 09:31:51;;;;;;;10.13;8.57;;;;;;;31.82;29.71;100386.08;128293;1095;22386;-77
2021/07/24 09:34:42;;;;;;;9.08;8.25;;;;;;;32.07;29.49;100386.60;128173;1098;22362;-77
2021/07/24 09:37:27;;;;;;;9.08;8.13;;;;;;;32.13;29.11;100371.70;128236;1095;24505;-77
2021/07/24 09:40:19;;;;;;;18.23;8.43;;;;;;;32.23;29.30;100367.91;128354;1095;22357;-77
2021/07/24 09:42:49;;;;;;;11.80;8.75;;;;;;;32.06;28.79;100366.67;128189;1097;22366;-76
2021/07/24 09:45:20;;;;;;;10.40;8.00;;;;;;;32.10;29.11;100364.13;128166;1095;22375;-76
2021/07/24 09:47:52;;;;;;;8.78;7.88;;;;;;;32.24;28.88;100353.91;128202;1095;23319;-76
2021/07/24 09:50:22;;;;;;;8.93;7.65;;;;;;;32.32;28.41;100357.80;128183;1095;22376;-77
2021/07/24 09:52:53;;;;;;;8.35;7.53;;;;;;;32.33;28.23;100357.50;128189;1098;24259;-77
2021/07/24 09:55:25;;;;;;;9.45;7.60;;;;;;;32.33;27.97;100357.50;128193;1098;22362;-76
2021/07/24 09:57:58;;;;;;;12.23;8.60;;;;;;;32.18;27.91;100343.42;128237;1096;22397;-76
2021/07/24 10:00:34;;;;;;;9.70;8.45;;;;;;;32.06;28.14;100344.81;128233;1098;22352;-77
2021/07/24 10:03:07;;;;;;;10.33;8.08;;;;;;;31.99;27.76;100335.42;128296;1096;22273;-76
2021/07/24 10:05:40;;;;;;;8.35;7.55;;;;;;;31.96;27.30;100338.80;128235;1097;22366;-76
2021/07/24 10:08:13;;;;;;;8.10;7.30;;;;;;;31.91;27.69;100331.52;128241;1098;22368;-77
2021/07/24 10:10:45;;;;;;;9.90;8.90;;;;;;;31.87;27.64;100330.50;128260;1098;22376;-77
2021/07/24 10:13:16;;;;;;;13.90;8.30;;;;;;;31.80;27.89;100338.34;128300;1098;22429;-77
2021/07/24 10:15:47;;;;;;;13.18;8.60;;;;;;;31.82;27.71;100334.19;128247;1098;22384;-76
2021/07/24 10:18:17;;;;;;;9.05;8.15;;;;;;;31.76;27.55;100332.69;128241;1098;24239;-77
2021/07/24 10:20:50;;;;;;;9.43;8.53;;;;;;;31.72;27.96;100341.79;128304;1098;22363;-77
2021/07/24 10:23:26;;;;;;;9.05;8.20;;;;;;;31.49;27.46;100335.50;128243;1098;24239;-77
2021/07/24 10:26:17;;;;;;;11.17;8.67;;;;;;;31.07;27.75;100337.50;128185;1098;24797;-78
2021/07/24 10:29:07;;;;;;;8.83;7.90;;;;;;;30.75;28.61;100327.48;128242;1098;24170;-77
2021/07/24 10:32:10;;;;;;;8.48;7.78;;;;;;;30.60;28.83;100331.33;128153;1098;22369;-77
2021/07/24 10:34:49;;;;;;;9.18;7.45;;;;;;;30.53;29.09;100333.64;128295;1095;24180;-77
2021/07/24 10:37:55;;;;;;;7.38;6.75;;;;;;;30.53;28.37;100337.17;128243;1098;22377;-77
2021/07/24 10:40:25;;;;;;;7.43;6.70;;;;;;;30.68;28.61;100338.78;127911;1101;22420;-76
2021/07/24 10:42:55;;;;;;;;;;;;;;;30.87;28.32;100336.80;128033;1099;24585;-77
2021/07/24 10:45:37;;;;;;;7.70;6.90;;;;;;;30.94;28.45;100337.20;127901;1101;23129;-77
2021/07/24 10:48:16;;;;;;;7.53;6.67;;;;;;;30.75;27.99;100330.20;127904;1101;22388;-77
2021/07/24 10:50:55;;;;;;;9.15;7.70;;;;;;;30.46;27.75;100331.31;128048;1099;22398;-77
2021/07/24 10:53:28;;;;;;;7.58;6.90;;;;;;;30.22;28.75;100331.45;128078;1101;24216;-77
2021/07/24 10:56:01;;;;;;;8.50;7.70;;;;;;;30.24;28.77;100334.70;127989;1101;22395;-77
2021/07/24 10:58:30;;;;;;;9.55;8.33;;;;;;;30.13;28.46;100335.97;127988;1101;22393;-77
2021/07/24 11:01:03;;;;;;;9.30;7.80;;;;;;;30.01;28.21;100329.05;127948;1101;22427;-77
2021/07/24 11:03:45;;;;;;;8.60;7.73;;;;;;;29.94;28.83;100327.83;127554;1101;22840;-77
2021/07/24 11:06:30;;;;;;;10.85;8.33;;;;;;;29.92;29.64;100330.03;127913;1101;22387;-77
2021/07/24 11:09:14;;;;;;;9.75;8.53;;;;;;;29.91;29.30;100321.05;127648;1101;22394;-76
2021/07/24 11:12:05;;;;;;;9.65;7.48;;;;;;;29.86;28.95;100332.05;127492;1101;24546;-77
2021/07/24 11:14:35;;;;;;;9.93;7.28;;;;;;;29.54;29.16;100322.69;127833;1098;24505;-77
2021/07/24 11:17:23;;;;;;;7.98;6.80;;;;;;;29.38;29.16;100323.20;127968;1098;22922;-78
2021/07/24 11:20:24;;;;;;;8.75;7.78;;;;;;;29.34;29.45;100314.83;127959;1098;22369;-77
2021/07/24 11:23:05;;;;;;;7.67;6.87;;;;;;;29.27;29.67;100308.95;127908;1101;22479;-77
2021/07/24 11:25:37;;;;;;;20.78;7.88;;;;;;;29.30;29.91;100316.52;127905;1101;22446;-78
2021/07/24 11:28:08;;;;;;;9.40;8.03;;;;;;;29.27;29.87;100309.75;127940;1099;22401;-79
2021/07/24 11:30:37;;;;;;;8.30;7.60;;;;;;;29.30;30.13;100313.80;127957;1101;22385;-79
2021/07/24 11:33:15;;;;;;;8.43;7.63;;;;;;;29.27;30.05;100298.06;127952;1101;22494;-77